sensor_id;sensor_type;location;lat;lon;timestamp;P1;durP1;ratioP1;P2;durP2;ratioP2
75516;SDS011;64097;52.548;13.406;2023-05-01T06:02:06;5.03;;;4.00;;
75516;SDS011;64097;52.548;13.406;2023-05-01T06:04:32;9.55;;;4.80;;
75516;SDS011;64097;52.548;13.406;2023-05-01T06:06:58;6.65;;;4.40;;
75516;SDS011;64097;52.548;13.406;2023-05-01T06:09:24;4.93;;;3.67;;
75516;SDS011;64097;52.548;13.406;2023-05-01T06:11:50;6.20;;;4.20;;
75516;SDS011;64097;52.548;13.406;2023-05-01T06:14:16;5.32;;;3.72;;
75516;SDS011;64097;52.548;13.406;2023-05-01T06:16:41;7.53;;;3.70;;
75516;SDS011;64097;52.548;13.406;2023-05-01T06:19:07;7.93;;;4.03;;
75516;SDS011;64097;52.548;13.406;2023-05-01T06:21:36;5.10;;;3.40;;
75516;SDS011;64097;52.548;13.406;2023-05-01T06:24:03;5.30;;;3.72;;
75516;SDS011;64097;52.548;13.406;2023-05-01T06:26:28;6.45;;;4.10;;
75516;SDS011;64097;52.548;13.406;2023-05-01T06:28:54;6.70;;;4.50;;
75516;SDS011;64097;52.548;13.406;2023-05-01T06:31:20;6.30;;;4.38;;
75516;SDS011;64097;52.548;13.406;2023-05-01T06:33:45;5.07;;;3.95;;
75516;SDS011;64097;52.548;13.406;2023-05-01T06:36:11;7.60;;;3.92;;
75516;SDS011;64097;52.548;13.406;2023-05-01T06:38:37;5.82;;;4.00;;
75516;SDS011;64097;52.548;13.406;2023-05-01T06:41:04;4.68;;;4.00;;
75516;SDS011;64097;52.548;13.406;2023-05-01T06:43:30;4.47;;;3.70;;
75516;SDS011;64097;52.548;13.406;2023-05-01T06:45:56;5.13;;;3.55;;
75516;SDS011;64097;52.548;13.406;2023-05-01T06:48:23;5.90;;;3.50;;
75516;SDS011;64097;52.548;13.406;2023-05-01T06:50:49;4.85;;;3.58;;
75516;SDS011;64097;52.548;13.406;2023-05-01T06:53:14;6.03;;;3.65;;
75516;SDS011;64097;52.548;13.406;2023-05-01T06:55:40;5.65;;;3.70;;
75516;SDS011;64097;52.548;13.406;2023-05-01T06:58:06;5.75;;;3.40;;
75516;SDS011;64097;52.548;13.406;2023-05-01T07:00:34;4.57;;;3.05;;
75516;SDS011;64097;52.548;13.406;2023-05-01T07:03:01;4.40;;;2.88;;
75516;SDS011;64097;52.548;13.406;2023-05-01T07:05:28;4.50;;;3.17;;
75516;SDS011;64097;52.548;13.406;2023-05-01T07:07:54;5.35;;;3.45;;
75516;SDS011;64097;52.548;13.406;2023-05-01T07:10:20;7.90;;;4.30;;
75516;SDS011;64097;52.548;13.406;2023-05-01T07:12:45;5.65;;;3.42;;
75516;SDS011;64097;52.548;13.406;2023-05-01T07:15:11;5.93;;;3.50;;
75516;SDS011;64097;52.548;13.406;2023-05-01T07:17:39;5.13;;;3.35;;
75516;SDS011;64097;52.548;13.406;2023-05-01T07:20:05;6.57;;;3.60;;
75516;SDS011;64097;52.548;13.406;2023-05-01T07:22:31;4.65;;;3.45;;
75516;SDS011;64097;52.548;13.406;2023-05-01T07:24:57;4.57;;;3.10;;
75516;SDS011;64097;52.548;13.406;2023-05-01T07:27:25;4.75;;;3.10;;
75516;SDS011;64097;52.548;13.406;2023-05-01T07:29:50;4.15;;;3.13;;
75516;SDS011;64097;52.548;13.406;2023-05-01T07:32:17;3.92;;;2.65;;
75516;SDS011;64097;52.548;13.406;2023-05-01T07:34:43;5.40;;;3.10;;
75516;SDS011;64097;52.548;13.406;2023-05-01T07:37:08;4.32;;;3.15;;
75516;SDS011;64097;52.548;13.406;2023-05-01T07:39:34;4.25;;;3.25;;
75516;SDS011;64097;52.548;13.406;2023-05-01T07:42:00;5.32;;;3.30;;
75516;SDS011;64097;52.548;13.406;2023-05-01T07:44:25;3.65;;;2.97;;
75516;SDS011;64097;52.548;13.406;2023-05-01T07:46:51;4.28;;;2.95;;
75516;SDS011;64097;52.548;13.406;2023-05-01T07:49:17;5.85;;;3.55;;
75516;SDS011;64097;52.548;13.406;2023-05-01T07:51:42;3.67;;;2.75;;
75516;SDS011;64097;52.548;13.406;2023-05-01T07:54:09;4.43;;;2.65;;
75516;SDS011;64097;52.548;13.406;2023-05-01T07:56:35;4.05;;;3.03;;
75516;SDS011;64097;52.548;13.406;2023-05-01T07:59:00;4.90;;;2.80;;
75516;SDS011;64097;52.548;13.406;2023-05-01T08:01:26;4.22;;;2.83;;
75516;SDS011;64097;52.548;13.406;2023-05-01T08:03:52;3.88;;;2.65;;
75516;SDS011;64097;52.548;13.406;2023-05-01T08:06:17;3.10;;;2.60;;
75516;SDS011;64097;52.548;13.406;2023-05-01T08:08:43;5.63;;;3.33;;
75516;SDS011;64097;52.548;13.406;2023-05-01T08:11:09;4.60;;;2.67;;
75516;SDS011;64097;52.548;13.406;2023-05-01T08:13:35;3.90;;;2.40;;
75516;SDS011;64097;52.548;13.406;2023-05-01T08:16:01;3.08;;;2.28;;
75516;SDS011;64097;52.548;13.406;2023-05-01T08:18:28;3.80;;;2.92;;
75516;SDS011;64097;52.548;13.406;2023-05-01T08:20:54;4.72;;;3.00;;
75516;SDS011;64097;52.548;13.406;2023-05-01T08:23:19;5.07;;;2.75;;
75516;SDS011;64097;52.548;13.406;2023-05-01T08:25:45;3.67;;;2.83;;
75516;SDS011;64097;52.548;13.406;2023-05-01T08:28:11;4.68;;;2.72;;
75516;SDS011;64097;52.548;13.406;2023-05-01T08:30:38;4.43;;;2.83;;
75516;SDS011;64097;52.548;13.406;2023-05-01T08:33:04;4.80;;;2.83;;
75516;SDS011;64097;52.548;13.406;2023-05-01T08:35:30;3.05;;;2.42;;
75516;SDS011;64097;52.548;13.406;2023-05-01T08:37:56;3.38;;;2.22;;
75516;SDS011;64097;52.548;13.406;2023-05-01T08:40:22;3.92;;;2.33;;
75516;SDS011;64097;52.548;13.406;2023-05-01T08:42:50;3.78;;;2.30;;
75516;SDS011;64097;52.548;13.406;2023-05-01T08:45:16;3.55;;;2.42;;
75516;SDS011;64097;52.548;13.406;2023-05-01T08:47:43;3.25;;;2.22;;
75516;SDS011;64097;52.548;13.406;2023-05-01T08:50:10;3.92;;;2.25;;
75516;SDS011;64097;52.548;13.406;2023-05-01T08:52:41;4.32;;;2.95;;
75516;SDS011;64097;52.548;13.406;2023-05-01T08:55:16;4.68;;;2.47;;
75516;SDS011;64097;52.548;13.406;2023-05-01T08:57:45;4.00;;;2.70;;
75516;SDS011;64097;52.548;13.406;2023-05-01T09:00:18;4.40;;;2.58;;
75516;SDS011;64097;52.548;13.406;2023-05-01T09:02:45;3.83;;;2.53;;
75516;SDS011;64097;52.548;13.406;2023-05-01T09:05:12;4.57;;;2.03;;
75516;SDS011;64097;52.548;13.406;2023-05-01T09:07:43;4.68;;;2.30;;
75516;SDS011;64097;52.548;13.406;2023-05-01T09:10:12;3.97;;;2.20;;
75516;SDS011;64097;52.548;13.406;2023-05-01T09:12:40;3.00;;;2.08;;
75516;SDS011;64097;52.548;13.406;2023-05-01T09:15:08;3.85;;;2.28;;
75516;SDS011;64097;52.548;13.406;2023-05-01T09:17:35;4.43;;;2.53;;
75516;SDS011;64097;52.548;13.406;2023-05-01T09:20:02;4.43;;;2.33;;
75516;SDS011;64097;52.548;13.406;2023-05-01T09:22:30;2.50;;;1.65;;
75516;SDS011;64097;52.548;13.406;2023-05-01T09:24:56;4.00;;;2.00;;
75516;SDS011;64097;52.548;13.406;2023-05-01T09:27:23;3.13;;;2.30;;
75516;SDS011;64097;52.548;13.406;2023-05-01T09:29:51;3.38;;;2.60;;
75516;SDS011;64097;52.548;13.406;2023-05-01T09:32:17;4.85;;;2.35;;
75516;SDS011;64097;52.548;13.406;2023-05-01T09:34:46;5.88;;;2.42;;
75516;SDS011;64097;52.548;13.406;2023-05-01T09:42:29;2.00;;;1.60;;
75516;SDS011;64097;52.548;13.406;2023-05-01T09:44:59;5.35;;;2.13;;
75516;SDS011;64097;52.548;13.406;2023-05-01T09:47:26;4.55;;;2.20;;
75516;SDS011;64097;52.548;13.406;2023-05-01T09:49:55;3.20;;;1.90;;
75516;SDS011;64097;52.548;13.406;2023-05-01T09:52:28;3.63;;;2.20;;
75516;SDS011;64097;52.548;13.406;2023-05-01T09:55:13;3.07;;;2.27;;
75516;SDS011;64097;52.548;13.406;2023-05-01T09:57:41;3.60;;;2.30;;
75516;SDS011;64097;52.548;13.406;2023-05-01T10:00:10;4.38;;;2.70;;
75516;SDS011;64097;52.548;13.406;2023-05-01T10:02:41;3.42;;;2.50;;
75516;SDS011;64097;52.548;13.406;2023-05-01T10:05:11;3.90;;;2.60;;
75516;SDS011;64097;52.548;13.406;2023-05-01T10:07:38;5.07;;;2.50;;
75516;SDS011;64097;52.548;13.406;2023-05-01T10:10:14;3.78;;;2.35;;
75516;SDS011;64097;52.548;13.406;2023-05-01T10:12:44;2.95;;;2.30;;
75516;SDS011;64097;52.548;13.406;2023-05-01T10:15:10;3.85;;;2.22;;
75516;SDS011;64097;52.548;13.406;2023-05-01T10:17:37;5.97;;;2.70;;
75516;SDS011;64097;52.548;13.406;2023-05-01T10:20:04;3.80;;;2.60;;
75516;SDS011;64097;52.548;13.406;2023-05-01T10:22:31;4.70;;;2.60;;
75516;SDS011;64097;52.548;13.406;2023-05-01T10:24:57;3.92;;;2.67;;
75516;SDS011;64097;52.548;13.406;2023-05-01T10:27:23;4.20;;;2.17;;
75516;SDS011;64097;52.548;13.406;2023-05-01T10:29:54;3.10;;;2.40;;
75516;SDS011;64097;52.548;13.406;2023-05-01T10:32:20;3.67;;;2.63;;
75516;SDS011;64097;52.548;13.406;2023-05-01T10:34:47;3.17;;;2.50;;
75516;SDS011;64097;52.548;13.406;2023-05-01T10:37:20;2.97;;;2.67;;
75516;SDS011;64097;52.548;13.406;2023-05-01T10:39:50;4.20;;;2.80;;
75516;SDS011;64097;52.548;13.406;2023-05-01T10:42:16;3.65;;;2.50;;
75516;SDS011;64097;52.548;13.406;2023-05-01T10:44:42;4.28;;;2.50;;
75516;SDS011;64097;52.548;13.406;2023-05-01T10:55:51;3.92;;;2.85;;
75516;SDS011;64097;52.548;13.406;2023-05-01T11:04:43;4.80;;;2.55;;
75516;SDS011;64097;52.548;13.406;2023-05-01T11:09:38;5.45;;;3.03;;
75516;SDS011;64097;52.548;13.406;2023-05-01T11:12:06;5.88;;;2.85;;
75516;SDS011;64097;52.548;13.406;2023-05-01T11:22:33;5.28;;;2.95;;
75516;SDS011;64097;52.548;13.406;2023-05-01T11:25:00;5.68;;;3.05;;
75516;SDS011;64097;52.548;13.406;2023-05-01T11:27:29;3.88;;;2.70;;
75516;SDS011;64097;52.548;13.406;2023-05-01T11:29:55;3.55;;;2.80;;
75516;SDS011;64097;52.548;13.406;2023-05-01T11:32:25;5.65;;;3.20;;
75516;SDS011;64097;52.548;13.406;2023-05-01T11:34:54;4.07;;;3.00;;
75516;SDS011;64097;52.548;13.406;2023-05-01T11:37:37;5.68;;;3.10;;
75516;SDS011;64097;52.548;13.406;2023-05-01T11:40:23;3.22;;;2.75;;
75516;SDS011;64097;52.548;13.406;2023-05-01T11:42:59;6.13;;;2.47;;
75516;SDS011;64097;52.548;13.406;2023-05-01T11:45:32;4.25;;;3.10;;
75516;SDS011;64097;52.548;13.406;2023-05-01T11:47:58;4.40;;;3.05;;
75516;SDS011;64097;52.548;13.406;2023-05-01T11:50:34;5.78;;;2.90;;
75516;SDS011;64097;52.548;13.406;2023-05-01T11:53:01;4.18;;;3.10;;
75516;SDS011;64097;52.548;13.406;2023-05-01T11:55:31;5.43;;;3.15;;
75516;SDS011;64097;52.548;13.406;2023-05-01T11:57:58;4.53;;;3.05;;
75516;SDS011;64097;52.548;13.406;2023-05-01T12:00:28;4.05;;;2.88;;
75516;SDS011;64097;52.548;13.406;2023-05-01T12:03:02;4.10;;;2.78;;
75516;SDS011;64097;52.548;13.406;2023-05-01T12:05:32;3.05;;;2.70;;
75516;SDS011;64097;52.548;13.406;2023-05-01T12:10:49;3.60;;;2.50;;
75516;SDS011;64097;52.548;13.406;2023-05-01T12:13:21;4.82;;;3.35;;
75516;SDS011;64097;52.548;13.406;2023-05-01T12:15:51;3.10;;;2.58;;
75516;SDS011;64097;52.548;13.406;2023-05-01T12:18:19;3.15;;;2.78;;
75516;SDS011;64097;52.548;13.406;2023-05-01T12:20:48;4.95;;;3.08;;
75516;SDS011;64097;52.548;13.406;2023-05-01T12:23:19;4.85;;;3.20;;
75516;SDS011;64097;52.548;13.406;2023-05-01T12:25:55;5.53;;;3.40;;
75516;SDS011;64097;52.548;13.406;2023-05-01T12:28:21;3.78;;;3.13;;
75516;SDS011;64097;52.548;13.406;2023-05-01T12:30:47;4.45;;;3.35;;
75516;SDS011;64097;52.548;13.406;2023-05-01T12:33:17;3.63;;;3.30;;
75516;SDS011;64097;52.548;13.406;2023-05-01T12:35:45;4.28;;;2.90;;
75516;SDS011;64097;52.548;13.406;2023-05-01T12:38:19;5.07;;;3.38;;
75516;SDS011;64097;52.548;13.406;2023-05-01T12:40:53;5.60;;;3.60;;
75516;SDS011;64097;52.548;13.406;2023-05-01T12:43:30;3.95;;;3.00;;
75516;SDS011;64097;52.548;13.406;2023-05-01T12:46:01;3.40;;;2.75;;
75516;SDS011;64097;52.548;13.406;2023-05-01T12:48:29;4.40;;;3.13;;
75516;SDS011;64097;52.548;13.406;2023-05-01T12:50:57;6.47;;;3.67;;
75516;SDS011;64097;52.548;13.406;2023-05-01T12:53:26;4.63;;;3.25;;
75516;SDS011;64097;52.548;13.406;2023-05-01T12:55:53;5.45;;;3.70;;
75516;SDS011;64097;52.548;13.406;2023-05-01T12:58:20;4.93;;;3.75;;
75516;SDS011;64097;52.548;13.406;2023-05-01T13:00:50;4.18;;;3.28;;
75516;SDS011;64097;52.548;13.406;2023-05-01T13:03:21;5.25;;;3.55;;
75516;SDS011;64097;52.548;13.406;2023-05-01T13:05:58;4.38;;;3.17;;
75516;SDS011;64097;52.548;13.406;2023-05-01T13:11:08;5.00;;;3.15;;
75516;SDS011;64097;52.548;13.406;2023-05-01T13:13:37;4.30;;;3.40;;
75516;SDS011;64097;52.548;13.406;2023-05-01T13:16:07;5.10;;;3.63;;
75516;SDS011;64097;52.548;13.406;2023-05-01T13:18:55;3.92;;;2.67;;
75516;SDS011;64097;52.548;13.406;2023-05-01T13:21:21;6.90;;;3.58;;
75516;SDS011;64097;52.548;13.406;2023-05-01T13:23:58;3.40;;;3.10;;
75516;SDS011;64097;52.548;13.406;2023-05-01T13:26:28;4.72;;;3.55;;
75516;SDS011;64097;52.548;13.406;2023-05-01T13:28:59;4.80;;;4.10;;
75516;SDS011;64097;52.548;13.406;2023-05-01T13:31:27;5.95;;;4.40;;
75516;SDS011;64097;52.548;13.406;2023-05-01T13:33:54;4.65;;;3.72;;
75516;SDS011;64097;52.548;13.406;2023-05-01T13:36:22;5.20;;;3.30;;
75516;SDS011;64097;52.548;13.406;2023-05-01T13:38:48;5.18;;;3.50;;
75516;SDS011;64097;52.548;13.406;2023-05-01T13:41:18;6.72;;;3.72;;
75516;SDS011;64097;52.548;13.406;2023-05-01T13:43:45;4.03;;;3.17;;
75516;SDS011;64097;52.548;13.406;2023-05-01T13:46:15;3.45;;;2.83;;
75516;SDS011;64097;52.548;13.406;2023-05-01T13:48:41;6.45;;;3.70;;
75516;SDS011;64097;52.548;13.406;2023-05-01T13:51:08;6.30;;;3.72;;
75516;SDS011;64097;52.548;13.406;2023-05-01T13:53:35;4.97;;;3.47;;
75516;SDS011;64097;52.548;13.406;2023-05-01T13:56:02;3.30;;;3.00;;
75516;SDS011;64097;52.548;13.406;2023-05-01T13:58:29;3.90;;;3.30;;
